Alorton, IL

12:28 PM CDT on September 20, 2014 (GMT -0500)
Shaw/Tower Grove | Change Station
CLOSE
Current Station
Personal Weather Station
Location: St. Louis, MO
Elevation: 502 ft
Nearby Weather Stations

Elev 502 ft 38.61 °N, 90.25 °W | Updated 6 minutes ago

Scattered Clouds
Scattered Clouds
81.1 °F
Feels Like 84 °F
N
1.6
Wind Variable Wind from South
Gusts 2.7 mph

Today
High -- | Low -- °F
--% Chance of Precip.
Yesterday
High -- | Low -- °F
Precip. -- in
6:46 AM 7:00 PM
Waning Crescent, 11% visible
Pressure 30.00 in
Visibility 10.0 miles
Clouds Few 2900 ft
Scattered Clouds 4800 ft
Scattered Clouds 6500 ft
Heat Index 84 °F
Dew Point 69 °F
Humidity 67%
Rainfall 0.00 in
Snow Depth Not available.
UV 6 out of 12
Pollen 7.40 out of 12
Ozone Good
PM2.5 Moderate
Flu Activity Not available.
METAR KCPS 201653Z 23009KT 10SM FEW029 SCT048 SCT065 28/21 A3001 RMK AO2 SLP159 T02830206

More Conditions Fewer Conditions

Pressure 30.00 in
Visibility 10.0 miles
Clouds Few 2900 ft
Scattered Clouds 4800 ft
Scattered Clouds 6500 ft
Heat Index 84 °F
Dew Point 69 °F
Humidity 67%
Rainfall 0.00 in
Snow Depth Not available.
UV 6 out of 12
Pollen 7.40 out of 12
Ozone Good
PM2.5 Moderate
Flu Activity Not available.
METAR KCPS 201653Z 23009KT 10SM FEW029 SCT048 SCT065 28/21 A3001 RMK AO2 SLP159 T02830206

More Conditions Fewer Conditions

10-Day Weather Forecast

Almanac

Astronomy

Sep. 20, 2014 Rise Set
Actual Time 6:46 AM CDT 7:00 PM CDT
Civil Twilight 6:20 AM CDT 7:27 PM CDT
Nautical Twilight 5:48 AM CDT 7:58 PM CDT
Astronomical Twilight 5:17 AM CDT 8:29 PM CDT
Moon 3:27 AM CDT 5:02 PM CDT
Length of Visible Light 13h 07m
Length of Day
12h 14m
Tomorrow will be 2m 30s shorter.
Waning Crescent, 11% of the Moon is Illuminated
Today
Waning Crescent
Sep 24
New
Oct 1
First Quarter
Oct 8
Full
Oct 15
Last Quarter

Today's Extremes

State Highs State Lows

Community

WunderPhotos

Upload Photos

1,754,906 photos uploaded!

Nearby

Air Quality

  Air Quality AQ Index Pollutant
Yesterday Moderate
PM2.5
Yesterday Good
OZONE
Current Moderate
PM2.5
Current Good
OZONE
Saturday Moderate
PM2.5
Sunday Good
PM2.5
Monday Good
PM2.5
Tuesday Moderate
PM2.5

Snow Depth

Station Depth Elevation
No new snow has been reported.

Earthquake Activity

City Distance Mag. Time & Date
No recent earthquake activity has been reported nearby.
Minimum magnitude displayed is 2.5.

Coastal Water Temperatures

Place Temperature
No Stations Reporting

Nearby Weather Stations